Wolf Creek Observed Data For Previous 48 Hours

Caption
Day and Hour Reservoir Elevation (behind dam)* Tailwater Elevation (below dam)* Average Hourly Discharge*
9/20/2018 1 AM CDT 707.99 551.99 3,180
9/20/2018 2 AM CDT 707.98 550.38 3,200
9/20/2018 3 AM CDT 707.97 549.27 3,220
9/20/2018 4 AM CDT 707.96 548.56 3,220
9/20/2018 5 AM CDT 707.95 548.15 3,220
9/20/2018 6 AM CDT 707.94 547.74 3,220
9/20/2018 7 AM CDT 707.95 547.45 3,240
9/20/2018 8 AM CDT 707.95 547.05 3,240
9/20/2018 9 AM CDT 707.96 546.96 3,240
9/20/2018 10 AM CDT 707.96 546.86 3,240
9/20/2018 11 AM CDT 707.96 546.86 3,240
9/20/2018 12 PM CDT 707.94 549.24 3,220
9/20/2018 1 PM CDT 707.91 553.41 3,180
9/20/2018 2 PM CDT 707.88 554.98 3,160
9/20/2018 3 PM CDT 707.87 556.17 18,700
9/20/2018 4 PM CDT 707.85 556.95 18,860
9/20/2018 5 PM CDT 707.82 557.32 18,860
9/20/2018 6 PM CDT 707.80 557.50 18,980
9/20/2018 7 PM CDT 707.77 557.67 18,960
9/20/2018 8 PM CDT 707.74 557.94 18,960
9/20/2018 9 PM CDT 707.71 558.31 19,120
9/20/2018 10 PM CDT 707.68 554.58 10,860
9/20/2018 11 PM CDT 707.67 551.47 3,180
9/21/2018 12 AM CDT 707.66 550.56 3,200
9/21/2018 1 AM CDT 707.65 549.55 3,200
9/21/2018 2 AM CDT 707.65 548.65 3,220
9/21/2018 3 AM CDT 707.64 548.14 3,220
9/21/2018 4 AM CDT 707.64 547.64 3,220
9/21/2018 5 AM CDT 707.63 547.43 3,220
9/21/2018 6 AM CDT 707.63 547.23 3,240
9/21/2018 7 AM CDT 707.63 547.13 3,240
9/21/2018 8 AM CDT 707.63 547.03 3,240
9/21/2018 9 AM CDT 707.63 546.93 3,240
9/21/2018 10 AM CDT 707.63 546.83 3,240
9/21/2018 11 AM CDT 707.62 546.82 3,240
9/21/2018 12 PM CDT 707.59 550.39 10,620
9/21/2018 1 PM CDT 707.57 555.07 18,560
9/21/2018 2 PM CDT 707.56 555.46 18,700
9/21/2018 3 PM CDT 707.55 556.15 18,860
9/21/2018 4 PM CDT 707.54 556.84 18,860
9/21/2018 5 PM CDT 707.52 557.02 18,860
9/21/2018 6 PM CDT 707.50 557.20 18,980
9/21/2018 7 PM CDT 707.47 557.47 18,960
9/21/2018 8 PM CDT 707.42 557.72 18,960
9/21/2018 9 PM CDT 707.38 556.38 14,930
9/21/2018 10 PM CDT 707.37 553.17 4,360
9/21/2018 11 PM CDT 707.36 551.56 540
9/22/2018 12 AM CDT 707.36 549.86 540
9/22/2018 1 AM CDT 707.36 546.86 540
9/22/2018 2 AM CDT 707.36 545.86 540
9/22/2018 3 AM CDT 707.36 545.06 540
9/22/2018 4 AM CDT 707.36 544.46 540
9/22/2018 5 AM CDT 707.36 544.26 540
9/22/2018 6 AM CDT 707.36 544.06 540
9/22/2018 7 AM CDT 707.36 543.78 560
9/22/2018 8 AM CDT 707.36 543.68 560
9/22/2018 9 AM CDT 707.36 543.28 560
9/22/2018 10 AM CDT 707.36 543.08 560
9/22/2018 11 AM CDT 707.40 543.00 560
9/22/2018 12 PM CDT 707.40 543.00 560
9/22/2018 1 PM CDT 707.40 543.00 560
9/22/2018 2 PM CDT 707.40 547.30 7,700
9/22/2018 3 PM CDT 707.40 547.40 4,130

Elevations are in feet above sea level. Discharges are in cubic feet per second and are reported at the end of the hour.